sensor_id;sensor_type;location;lat;lon;timestamp;P1;durP1;ratioP1;P2;durP2;ratioP2
64678;SDS011;51094;53.864;27.676;2023-04-01T00:01:50;7.15;;;6.65;;
64678;SDS011;51094;53.864;27.676;2023-04-01T00:04:16;6.90;;;6.55;;
64678;SDS011;51094;53.864;27.676;2023-04-01T00:06:43;8.65;;;8.05;;
64678;SDS011;51094;53.864;27.676;2023-04-01T00:09:11;7.60;;;7.18;;
64678;SDS011;51094;53.864;27.676;2023-04-01T00:11:37;8.07;;;7.55;;
64678;SDS011;51094;53.864;27.676;2023-04-01T00:14:05;13.05;;;12.25;;
64678;SDS011;51094;53.864;27.676;2023-04-01T00:16:32;12.25;;;11.45;;
64678;SDS011;51094;53.864;27.676;2023-04-01T00:18:59;12.07;;;11.57;;
64678;SDS011;51094;53.864;27.676;2023-04-01T00:21:26;10.85;;;10.35;;
64678;SDS011;51094;53.864;27.676;2023-04-01T00:23:53;10.80;;;9.98;;
64678;SDS011;51094;53.864;27.676;2023-04-01T00:26:20;9.95;;;9.45;;
64678;SDS011;51094;53.864;27.676;2023-04-01T00:28:48;10.00;;;9.60;;
64678;SDS011;51094;53.864;27.676;2023-04-01T00:31:15;10.15;;;9.55;;
64678;SDS011;51094;53.864;27.676;2023-04-01T00:33:42;8.90;;;8.60;;
64678;SDS011;51094;53.864;27.676;2023-04-01T00:36:13;8.65;;;8.25;;
64678;SDS011;51094;53.864;27.676;2023-04-01T00:38:42;8.85;;;8.50;;
64678;SDS011;51094;53.864;27.676;2023-04-01T00:41:10;8.25;;;7.85;;
64678;SDS011;51094;53.864;27.676;2023-04-01T00:43:42;7.35;;;7.05;;
64678;SDS011;51094;53.864;27.676;2023-04-01T00:46:11;7.28;;;6.97;;
64678;SDS011;51094;53.864;27.676;2023-04-01T00:48:38;7.53;;;7.22;;
64678;SDS011;51094;53.864;27.676;2023-04-01T00:51:09;7.47;;;7.22;;
64678;SDS011;51094;53.864;27.676;2023-04-01T00:53:41;7.38;;;7.18;;
64678;SDS011;51094;53.864;27.676;2023-04-01T00:56:13;8.02;;;7.57;;
64678;SDS011;51094;53.864;27.676;2023-04-01T00:58:45;7.85;;;7.55;;
64678;SDS011;51094;53.864;27.676;2023-04-01T01:01:15;8.35;;;7.75;;
64678;SDS011;51094;53.864;27.676;2023-04-01T01:03:42;7.45;;;7.20;;
64678;SDS011;51094;53.864;27.676;2023-04-01T01:07:13;8.25;;;7.80;;
64678;SDS011;51094;53.864;27.676;2023-04-01T01:12:08;8.00;;;7.40;;
64678;SDS011;51094;53.864;27.676;2023-04-01T01:14:45;7.70;;;7.30;;
64678;SDS011;51094;53.864;27.676;2023-04-01T01:31:12;6.45;;;6.18;;
64678;SDS011;51094;53.864;27.676;2023-04-01T01:33:55;6.95;;;6.55;;
64678;SDS011;51094;53.864;27.676;2023-04-01T01:36:31;6.72;;;6.22;;
64678;SDS011;51094;53.864;27.676;2023-04-01T01:39:06;7.30;;;6.82;;
64678;SDS011;51094;53.864;27.676;2023-04-01T01:41:36;6.63;;;6.22;;
64678;SDS011;51094;53.864;27.676;2023-04-01T01:44:06;5.95;;;5.70;;
64678;SDS011;51094;53.864;27.676;2023-04-01T01:46:36;7.05;;;6.75;;
64678;SDS011;51094;53.864;27.676;2023-04-01T01:49:06;8.02;;;7.63;;
64678;SDS011;51094;53.864;27.676;2023-04-01T01:51:36;7.80;;;7.45;;
64678;SDS011;51094;53.864;27.676;2023-04-01T01:54:05;8.30;;;7.70;;
64678;SDS011;51094;53.864;27.676;2023-04-01T01:56:32;10.57;;;10.02;;
64678;SDS011;51094;53.864;27.676;2023-04-01T01:59:03;9.57;;;9.18;;
64678;SDS011;51094;53.864;27.676;2023-04-01T02:01:35;9.95;;;9.27;;
64678;SDS011;51094;53.864;27.676;2023-04-01T02:04:10;9.02;;;8.43;;
64678;SDS011;51094;53.864;27.676;2023-04-01T02:06:41;8.40;;;7.80;;
64678;SDS011;51094;53.864;27.676;2023-04-01T02:09:13;6.40;;;6.05;;
64678;SDS011;51094;53.864;27.676;2023-04-01T02:11:50;6.75;;;6.35;;
64678;SDS011;51094;53.864;27.676;2023-04-01T02:14:23;6.15;;;5.75;;
64678;SDS011;51094;53.864;27.676;2023-04-01T02:16:54;6.10;;;5.88;;
64678;SDS011;51094;53.864;27.676;2023-04-01T02:19:26;7.13;;;6.60;;
64678;SDS011;51094;53.864;27.676;2023-04-01T02:21:59;7.00;;;6.50;;
64678;SDS011;51094;53.864;27.676;2023-04-01T02:24:30;6.60;;;6.25;;
64678;SDS011;51094;53.864;27.676;2023-04-01T02:26:59;5.88;;;5.50;;
64678;SDS011;51094;53.864;27.676;2023-04-01T02:29:27;5.63;;;5.32;;
64678;SDS011;51094;53.864;27.676;2023-04-01T02:31:54;5.30;;;5.10;;
64678;SDS011;51094;53.864;27.676;2023-04-01T02:34:22;5.05;;;4.82;;
64678;SDS011;51094;53.864;27.676;2023-04-01T02:36:51;6.15;;;5.95;;
64678;SDS011;51094;53.864;27.676;2023-04-01T02:39:19;5.32;;;5.22;;
64678;SDS011;51094;53.864;27.676;2023-04-01T02:41:47;5.72;;;5.53;;
64678;SDS011;51094;53.864;27.676;2023-04-01T02:44:14;5.38;;;5.28;;
64678;SDS011;51094;53.864;27.676;2023-04-01T02:46:42;5.45;;;5.25;;
64678;SDS011;51094;53.864;27.676;2023-04-01T02:49:09;5.45;;;5.25;;
64678;SDS011;51094;53.864;27.676;2023-04-01T02:51:36;5.40;;;5.20;;
64678;SDS011;51094;53.864;27.676;2023-04-01T02:54:03;5.28;;;4.97;;
64678;SDS011;51094;53.864;27.676;2023-04-01T02:56:30;5.18;;;5.07;;
64678;SDS011;51094;53.864;27.676;2023-04-01T02:58:57;5.13;;;4.93;;
64678;SDS011;51094;53.864;27.676;2023-04-01T03:01:24;5.00;;;4.70;;
64678;SDS011;51094;53.864;27.676;2023-04-01T03:03:51;4.80;;;4.63;;
64678;SDS011;51094;53.864;27.676;2023-04-01T03:06:18;5.30;;;5.20;;
64678;SDS011;51094;53.864;27.676;2023-04-01T03:08:45;5.38;;;5.18;;
64678;SDS011;51094;53.864;27.676;2023-04-01T03:11:12;5.80;;;5.50;;
64678;SDS011;51094;53.864;27.676;2023-04-01T03:13:39;5.50;;;5.30;;
64678;SDS011;51094;53.864;27.676;2023-04-01T03:16:06;7.53;;;7.22;;
64678;SDS011;51094;53.864;27.676;2023-04-01T03:18:34;8.70;;;8.13;;
64678;SDS011;51094;53.864;27.676;2023-04-01T03:21:17;9.25;;;8.88;;
64678;SDS011;51094;53.864;27.676;2023-04-01T03:23:45;7.55;;;7.18;;
64678;SDS011;51094;53.864;27.676;2023-04-01T03:26:13;7.05;;;6.80;;
64678;SDS011;51094;53.864;27.676;2023-04-01T03:28:40;6.68;;;6.40;;
64678;SDS011;51094;53.864;27.676;2023-04-01T03:31:07;6.50;;;6.30;;
64678;SDS011;51094;53.864;27.676;2023-04-01T03:33:41;6.20;;;5.90;;
64678;SDS011;51094;53.864;27.676;2023-04-01T03:36:08;5.70;;;5.50;;
64678;SDS011;51094;53.864;27.676;2023-04-01T03:38:35;5.18;;;4.97;;
64678;SDS011;51094;53.864;27.676;2023-04-01T03:41:02;4.60;;;4.40;;
64678;SDS011;51094;53.864;27.676;2023-04-01T03:43:31;4.80;;;4.65;;
64678;SDS011;51094;53.864;27.676;2023-04-01T03:45:59;4.50;;;4.40;;
64678;SDS011;51094;53.864;27.676;2023-04-01T03:48:26;4.63;;;4.32;;
64678;SDS011;51094;53.864;27.676;2023-04-01T03:50:53;4.68;;;4.35;;
64678;SDS011;51094;53.864;27.676;2023-04-01T03:53:20;4.13;;;4.00;;
64678;SDS011;51094;53.864;27.676;2023-04-01T03:55:47;4.47;;;4.28;;
64678;SDS011;51094;53.864;27.676;2023-04-01T03:58:14;4.30;;;4.00;;
64678;SDS011;51094;53.864;27.676;2023-04-01T04:00:41;4.30;;;4.20;;
64678;SDS011;51094;53.864;27.676;2023-04-01T04:03:09;7.05;;;4.88;;
64678;SDS011;51094;53.864;27.676;2023-04-01T04:05:36;5.22;;;4.78;;
64678;SDS011;51094;53.864;27.676;2023-04-01T04:08:04;5.40;;;5.20;;
64678;SDS011;51094;53.864;27.676;2023-04-01T04:10:31;7.40;;;7.00;;
64678;SDS011;51094;53.864;27.676;2023-04-01T04:12:58;6.25;;;5.95;;
64678;SDS011;51094;53.864;27.676;2023-04-01T04:15:27;7.05;;;6.65;;
64678;SDS011;51094;53.864;27.676;2023-04-01T04:17:54;7.30;;;7.00;;
64678;SDS011;51094;53.864;27.676;2023-04-01T04:20:21;7.53;;;7.13;;
64678;SDS011;51094;53.864;27.676;2023-04-01T04:22:48;7.70;;;7.03;;
64678;SDS011;51094;53.864;27.676;2023-04-01T04:25:15;7.10;;;6.70;;
64678;SDS011;51094;53.864;27.676;2023-04-01T04:27:42;6.63;;;6.40;;
64678;SDS011;51094;53.864;27.676;2023-04-01T04:30:11;6.47;;;6.18;;
64678;SDS011;51094;53.864;27.676;2023-04-01T04:32:38;5.80;;;5.53;;
64678;SDS011;51094;53.864;27.676;2023-04-01T04:35:05;5.97;;;5.57;;
64678;SDS011;51094;53.864;27.676;2023-04-01T04:37:33;5.57;;;5.38;;
64678;SDS011;51094;53.864;27.676;2023-04-01T04:40:00;5.90;;;5.60;;
64678;SDS011;51094;53.864;27.676;2023-04-01T04:42:28;6.65;;;6.35;;
64678;SDS011;51094;53.864;27.676;2023-04-01T04:45:00;6.20;;;5.97;;
64678;SDS011;51094;53.864;27.676;2023-04-01T04:47:27;4.90;;;4.80;;
64678;SDS011;51094;53.864;27.676;2023-04-01T04:49:53;5.03;;;4.88;;
64678;SDS011;51094;53.864;27.676;2023-04-01T04:52:20;4.95;;;4.85;;
64678;SDS011;51094;53.864;27.676;2023-04-01T04:54:47;5.30;;;5.10;;
64678;SDS011;51094;53.864;27.676;2023-04-01T04:57:14;5.20;;;5.10;;
64678;SDS011;51094;53.864;27.676;2023-04-01T04:59:48;4.57;;;4.47;;
64678;SDS011;51094;53.864;27.676;2023-04-01T05:02:23;4.65;;;4.55;;
64678;SDS011;51094;53.864;27.676;2023-04-01T05:04:50;4.40;;;4.30;;
64678;SDS011;51094;53.864;27.676;2023-04-01T05:07:17;4.13;;;4.13;;
64678;SDS011;51094;53.864;27.676;2023-04-01T05:09:44;4.20;;;4.10;;
64678;SDS011;51094;53.864;27.676;2023-04-01T05:12:13;3.65;;;3.65;;
64678;SDS011;51094;53.864;27.676;2023-04-01T05:14:54;3.83;;;3.83;;
64678;SDS011;51094;53.864;27.676;2023-04-01T05:17:21;4.38;;;4.30;;
64678;SDS011;51094;53.864;27.676;2023-04-01T05:19:48;5.40;;;5.30;;
64678;SDS011;51094;53.864;27.676;2023-04-01T05:22:15;4.45;;;4.35;;
64678;SDS011;51094;53.864;27.676;2023-04-01T05:24:43;5.60;;;5.40;;
64678;SDS011;51094;53.864;27.676;2023-04-01T05:27:10;6.00;;;5.80;;
64678;SDS011;51094;53.864;27.676;2023-04-01T05:29:39;7.00;;;6.80;;
64678;SDS011;51094;53.864;27.676;2023-04-01T05:32:09;5.95;;;5.75;;
64678;SDS011;51094;53.864;27.676;2023-04-01T05:34:36;6.20;;;6.00;;
64678;SDS011;51094;53.864;27.676;2023-04-01T05:37:03;6.45;;;6.15;;
64678;SDS011;51094;53.864;27.676;2023-04-01T05:39:30;5.75;;;5.55;;
64678;SDS011;51094;53.864;27.676;2023-04-01T05:41:57;5.70;;;5.50;;
64678;SDS011;51094;53.864;27.676;2023-04-01T05:44:24;5.55;;;5.45;;
64678;SDS011;51094;53.864;27.676;2023-04-01T05:47:06;5.07;;;4.97;;
64678;SDS011;51094;53.864;27.676;2023-04-01T05:49:33;5.40;;;5.30;;
64678;SDS011;51094;53.864;27.676;2023-04-01T05:52:00;5.97;;;5.78;;
64678;SDS011;51094;53.864;27.676;2023-04-01T05:54:27;5.93;;;5.82;;
64678;SDS011;51094;53.864;27.676;2023-04-01T05:56:55;5.57;;;5.47;;
64678;SDS011;51094;53.864;27.676;2023-04-01T05:59:21;5.40;;;5.30;;
64678;SDS011;51094;53.864;27.676;2023-04-01T06:01:49;5.22;;;5.13;;
64678;SDS011;51094;53.864;27.676;2023-04-01T06:04:17;5.60;;;5.50;;
64678;SDS011;51094;53.864;27.676;2023-04-01T06:06:45;6.13;;;6.03;;
64678;SDS011;51094;53.864;27.676;2023-04-01T06:14:53;4.90;;;4.80;;
64678;SDS011;51094;53.864;27.676;2023-04-01T06:20:35;4.30;;;4.30;;
64678;SDS011;51094;53.864;27.676;2023-04-01T06:28:41;4.72;;;4.63;;
64678;SDS011;51094;53.864;27.676;2023-04-01T06:31:24;4.72;;;4.63;;
64678;SDS011;51094;53.864;27.676;2023-04-01T06:48:21;5.60;;;5.50;;
64678;SDS011;51094;53.864;27.676;2023-04-01T06:54:49;3.15;;;3.15;;
64678;SDS011;51094;53.864;27.676;2023-04-01T06:57:44;2.50;;;2.50;;
64678;SDS011;51094;53.864;27.676;2023-04-01T07:00:37;2.10;;;2.10;;
64678;SDS011;51094;53.864;27.676;2023-04-01T07:03:20;2.30;;;2.30;;
64678;SDS011;51094;53.864;27.676;2023-04-01T07:05:52;2.95;;;2.95;;
64678;SDS011;51094;53.864;27.676;2023-04-01T07:08:25;2.70;;;2.70;;
64678;SDS011;51094;53.864;27.676;2023-04-01T07:11:04;3.50;;;3.50;;
64678;SDS011;51094;53.864;27.676;2023-04-01T07:13:55;4.05;;;4.05;;
64678;SDS011;51094;53.864;27.676;2023-04-01T07:16:34;7.88;;;7.78;;
64678;SDS011;51094;53.864;27.676;2023-04-01T07:19:16;5.68;;;5.57;;
64678;SDS011;51094;53.864;27.676;2023-04-01T07:22:12;4.22;;;4.13;;
64678;SDS011;51094;53.864;27.676;2023-04-01T07:28:38;4.68;;;4.57;;
64678;SDS011;51094;53.864;27.676;2023-04-01T07:34:24;4.22;;;4.13;;
64678;SDS011;51094;53.864;27.676;2023-04-01T07:39:37;4.57;;;4.47;;
64678;SDS011;51094;53.864;27.676;2023-04-01T07:45:01;4.63;;;4.53;;
64678;SDS011;51094;53.864;27.676;2023-04-01T07:55:42;3.10;;;3.10;;
64678;SDS011;51094;53.864;27.676;2023-04-01T08:06:48;4.90;;;4.80;;
64678;SDS011;51094;53.864;27.676;2023-04-01T08:21:04;5.80;;;5.70;;
64678;SDS011;51094;53.864;27.676;2023-04-01T08:23:37;5.60;;;5.50;;
64678;SDS011;51094;53.864;27.676;2023-04-01T08:26:16;6.22;;;6.13;;
64678;SDS011;51094;53.864;27.676;2023-04-01T08:28:58;4.07;;;4.07;;
64678;SDS011;51094;53.864;27.676;2023-04-01T08:31:33;3.60;;;3.50;;
64678;SDS011;51094;53.864;27.676;2023-04-01T08:34:10;3.63;;;3.63;;
64678;SDS011;51094;53.864;27.676;2023-04-01T08:36:50;3.85;;;3.85;;
64678;SDS011;51094;53.864;27.676;2023-04-01T08:39:24;4.25;;;4.15;;
64678;SDS011;51094;53.864;27.676;2023-04-01T08:45:04;3.22;;;3.20;;
64678;SDS011;51094;53.864;27.676;2023-04-01T08:47:37;2.90;;;2.90;;
64678;SDS011;51094;53.864;27.676;2023-04-01T08:53:21;3.67;;;3.60;;
64678;SDS011;51094;53.864;27.676;2023-04-01T08:58:54;3.13;;;3.13;;
64678;SDS011;51094;53.864;27.676;2023-04-01T09:26:59;3.63;;;3.63;;
64678;SDS011;51094;53.864;27.676;2023-04-01T09:29:35;3.17;;;3.17;;
64678;SDS011;51094;53.864;27.676;2023-04-01T09:32:28;3.17;;;3.17;;
64678;SDS011;51094;53.864;27.676;2023-04-01T09:35:38;2.60;;;2.60;;
64678;SDS011;51094;53.864;27.676;2023-04-01T09:38:19;2.67;;;2.67;;
64678;SDS011;51094;53.864;27.676;2023-04-01T09:41:02;4.82;;;4.72;;
64678;SDS011;51094;53.864;27.676;2023-04-01T09:44:03;5.97;;;5.88;;
64678;SDS011;51094;53.864;27.676;2023-04-01T09:49:41;4.93;;;4.82;;
64678;SDS011;51094;53.864;27.676;2023-04-01T09:52:23;4.60;;;4.60;;
64678;SDS011;51094;53.864;27.676;2023-04-01T10:09:57;3.55;;;3.55;;
64678;SDS011;51094;53.864;27.676;2023-04-01T10:15:24;4.30;;;4.30;;
64678;SDS011;51094;53.864;27.676;2023-04-01T10:23:22;5.28;;;5.18;;
64678;SDS011;51094;53.864;27.676;2023-04-01T10:29:01;4.85;;;4.75;;
64678;SDS011;51094;53.864;27.676;2023-04-01T10:31:57;5.18;;;5.07;;
64678;SDS011;51094;53.864;27.676;2023-04-01T10:52:01;5.50;;;5.40;;
64678;SDS011;51094;53.864;27.676;2023-04-01T11:05:18;6.07;;;5.97;;
64678;SDS011;51094;53.864;27.676;2023-04-01T11:13:39;6.07;;;5.97;;
64678;SDS011;51094;53.864;27.676;2023-04-01T11:19:34;7.65;;;7.55;;
64678;SDS011;51094;53.864;27.676;2023-04-01T11:34:20;5.32;;;5.22;;
64678;SDS011;51094;53.864;27.676;2023-04-01T11:43:51;5.03;;;4.93;;
64678;SDS011;51094;53.864;27.676;2023-04-01T11:47:07;5.43;;;5.32;;
64678;SDS011;51094;53.864;27.676;2023-04-01T11:49:55;5.07;;;4.97;;
64678;SDS011;51094;53.864;27.676;2023-04-01T11:58:29;5.57;;;5.47;;
64678;SDS011;51094;53.864;27.676;2023-04-01T12:01:03;5.90;;;5.80;;
64678;SDS011;51094;53.864;27.676;2023-04-01T12:09:25;5.82;;;5.72;;
64678;SDS011;51094;53.864;27.676;2023-04-01T12:15:05;6.10;;;6.00;;
64678;SDS011;51094;53.864;27.676;2023-04-01T12:17:52;6.50;;;6.40;;
64678;SDS011;51094;53.864;27.676;2023-04-01T12:31:23;6.30;;;6.20;;
64678;SDS011;51094;53.864;27.676;2023-04-01T12:40:30;6.82;;;6.72;;
64678;SDS011;51094;53.864;27.676;2023-04-01T12:46:26;7.32;;;7.22;;
64678;SDS011;51094;53.864;27.676;2023-04-01T12:51:28;6.95;;;6.85;;
64678;SDS011;51094;53.864;27.676;2023-04-01T12:54:12;7.07;;;6.97;;
64678;SDS011;51094;53.864;27.676;2023-04-01T13:11:13;5.50;;;5.40;;
64678;SDS011;51094;53.864;27.676;2023-04-01T13:19:30;5.35;;;5.25;;
64678;SDS011;51094;53.864;27.676;2023-04-01T13:24:44;5.43;;;5.32;;
64678;SDS011;51094;53.864;27.676;2023-04-01T13:27:37;5.22;;;5.15;;
64678;SDS011;51094;53.864;27.676;2023-04-01T13:30:30;5.60;;;5.50;;
64678;SDS011;51094;53.864;27.676;2023-04-01T13:36:08;5.20;;;5.10;;
64678;SDS011;51094;53.864;27.676;2023-04-01T13:44:19;5.88;;;5.78;;
64678;SDS011;51094;53.864;27.676;2023-04-01T13:49:53;5.80;;;5.70;;
64678;SDS011;51094;53.864;27.676;2023-04-01T13:55:28;6.50;;;6.40;;
64678;SDS011;51094;53.864;27.676;2023-04-01T14:06:57;7.18;;;7.07;;
64678;SDS011;51094;53.864;27.676;2023-04-01T14:28:56;7.10;;;7.00;;
64678;SDS011;51094;53.864;27.676;2023-04-01T14:31:55;8.00;;;7.88;;
64678;SDS011;51094;53.864;27.676;2023-04-01T14:34:40;7.70;;;7.60;;
64678;SDS011;51094;53.864;27.676;2023-04-01T14:42:38;7.07;;;6.97;;
64678;SDS011;51094;53.864;27.676;2023-04-01T14:45:23;7.20;;;7.10;;
64678;SDS011;51094;53.864;27.676;2023-04-01T14:48:15;7.13;;;7.03;;
64678;SDS011;51094;53.864;27.676;2023-04-01T14:50:48;7.55;;;7.45;;
64678;SDS011;51094;53.864;27.676;2023-04-01T14:53:31;7.53;;;7.43;;
64678;SDS011;51094;53.864;27.676;2023-04-01T14:56:05;7.43;;;7.22;;
64678;SDS011;51094;53.864;27.676;2023-04-01T15:04:23;7.13;;;7.03;;
64678;SDS011;51094;53.864;27.676;2023-04-01T15:18:09;7.18;;;7.07;;
64678;SDS011;51094;53.864;27.676;2023-04-01T15:26:31;6.97;;;6.78;;
64678;SDS011;51094;53.864;27.676;2023-04-01T15:31:55;7.53;;;7.43;;
64678;SDS011;51094;53.864;27.676;2023-04-01T15:52:14;8.45;;;8.35;;
64678;SDS011;51094;53.864;27.676;2023-04-01T15:57:29;8.98;;;8.77;;
64678;SDS011;51094;53.864;27.676;2023-04-01T16:08:37;7.28;;;7.18;;
64678;SDS011;51094;53.864;27.676;2023-04-01T16:28:04;6.70;;;6.60;;
64678;SDS011;51094;53.864;27.676;2023-04-01T16:30:39;7.10;;;7.00;;
64678;SDS011;51094;53.864;27.676;2023-04-01T16:33:25;7.20;;;7.10;;
64678;SDS011;51094;53.864;27.676;2023-04-01T16:42:31;6.82;;;6.72;;
64678;SDS011;51094;53.864;27.676;2023-04-01T16:47:40;6.43;;;6.32;;
64678;SDS011;51094;53.864;27.676;2023-04-01T16:50:22;5.85;;;5.75;;
64678;SDS011;51094;53.864;27.676;2023-04-01T16:58:33;6.20;;;6.10;;
64678;SDS011;51094;53.864;27.676;2023-04-01T17:01:14;6.03;;;5.93;;
64678;SDS011;51094;53.864;27.676;2023-04-01T17:03:49;6.13;;;6.03;;
64678;SDS011;51094;53.864;27.676;2023-04-01T17:06:23;6.13;;;6.03;;
64678;SDS011;51094;53.864;27.676;2023-04-01T17:09:19;5.80;;;5.70;;
64678;SDS011;51094;53.864;27.676;2023-04-01T17:12:00;5.50;;;5.40;;
64678;SDS011;51094;53.864;27.676;2023-04-01T17:31:10;6.18;;;6.07;;
64678;SDS011;51094;53.864;27.676;2023-04-01T17:42:05;5.32;;;5.22;;
64678;SDS011;51094;53.864;27.676;2023-04-01T17:44:58;5.80;;;5.70;;
64678;SDS011;51094;53.864;27.676;2023-04-01T17:47:43;5.35;;;5.25;;
64678;SDS011;51094;53.864;27.676;2023-04-01T18:02:24;4.00;;;3.92;;
64678;SDS011;51094;53.864;27.676;2023-04-01T18:10:31;4.13;;;4.13;;
64678;SDS011;51094;53.864;27.676;2023-04-01T18:13:19;3.97;;;3.97;;
64678;SDS011;51094;53.864;27.676;2023-04-01T18:21:23;4.07;;;4.07;;
64678;SDS011;51094;53.864;27.676;2023-04-01T18:23:59;4.20;;;4.20;;
64678;SDS011;51094;53.864;27.676;2023-04-01T18:26:33;4.18;;;4.18;;
64678;SDS011;51094;53.864;27.676;2023-04-01T18:34:53;4.45;;;4.45;;
64678;SDS011;51094;53.864;27.676;2023-04-01T18:37:34;4.30;;;4.30;;
64678;SDS011;51094;53.864;27.676;2023-04-01T18:43:30;3.67;;;3.67;;
64678;SDS011;51094;53.864;27.676;2023-04-01T18:54:29;3.67;;;3.67;;
64678;SDS011;51094;53.864;27.676;2023-04-01T18:57:00;3.40;;;3.40;;
64678;SDS011;51094;53.864;27.676;2023-04-01T19:02:27;3.20;;;3.20;;
64678;SDS011;51094;53.864;27.676;2023-04-01T19:05:02;3.45;;;3.42;;
64678;SDS011;51094;53.864;27.676;2023-04-01T19:07:49;3.08;;;3.08;;
64678;SDS011;51094;53.864;27.676;2023-04-01T19:15:49;4.50;;;4.40;;
64678;SDS011;51094;53.864;27.676;2023-04-01T19:21:14;3.55;;;3.55;;
64678;SDS011;51094;53.864;27.676;2023-04-01T19:26:14;3.90;;;3.80;;
64678;SDS011;51094;53.864;27.676;2023-04-01T19:29:55;3.30;;;3.30;;
64678;SDS011;51094;53.864;27.676;2023-04-01T19:34:53;3.33;;;3.33;;
64678;SDS011;51094;53.864;27.676;2023-04-01T19:37:38;3.40;;;3.40;;
64678;SDS011;51094;53.864;27.676;2023-04-01T19:40:13;3.38;;;3.38;;
64678;SDS011;51094;53.864;27.676;2023-04-01T19:42:53;3.50;;;3.50;;
64678;SDS011;51094;53.864;27.676;2023-04-01T19:45:41;3.03;;;3.03;;
64678;SDS011;51094;53.864;27.676;2023-04-01T19:48:20;3.20;;;3.20;;
64678;SDS011;51094;53.864;27.676;2023-04-01T19:50:55;3.35;;;3.35;;
64678;SDS011;51094;53.864;27.676;2023-04-01T19:58:50;3.40;;;3.40;;
64678;SDS011;51094;53.864;27.676;2023-04-01T20:01:23;3.35;;;3.35;;
64678;SDS011;51094;53.864;27.676;2023-04-01T20:04:13;3.70;;;3.70;;
64678;SDS011;51094;53.864;27.676;2023-04-01T20:06:52;3.70;;;3.70;;
64678;SDS011;51094;53.864;27.676;2023-04-01T20:10:09;3.97;;;3.97;;
64678;SDS011;51094;53.864;27.676;2023-04-01T20:15:21;4.40;;;4.30;;
64678;SDS011;51094;53.864;27.676;2023-04-01T20:17:48;4.85;;;4.75;;
64678;SDS011;51094;53.864;27.676;2023-04-01T20:23:24;5.43;;;5.32;;
64678;SDS011;51094;53.864;27.676;2023-04-01T20:25:55;6.43;;;6.32;;
64678;SDS011;51094;53.864;27.676;2023-04-01T20:28:30;6.45;;;6.35;;
64678;SDS011;51094;53.864;27.676;2023-04-01T20:42:04;7.25;;;7.15;;
64678;SDS011;51094;53.864;27.676;2023-04-01T20:45:04;7.78;;;7.65;;
64678;SDS011;51094;53.864;27.676;2023-04-01T20:53:15;7.40;;;7.30;;
64678;SDS011;51094;53.864;27.676;2023-04-01T21:01:13;6.78;;;6.68;;
64678;SDS011;51094;53.864;27.676;2023-04-01T21:06:29;6.95;;;6.85;;
64678;SDS011;51094;53.864;27.676;2023-04-01T21:14:59;6.72;;;6.63;;
64678;SDS011;51094;53.864;27.676;2023-04-01T21:18:03;6.57;;;6.47;;
64678;SDS011;51094;53.864;27.676;2023-04-01T21:25:46;6.80;;;6.70;;
64678;SDS011;51094;53.864;27.676;2023-04-01T21:28:33;6.78;;;6.68;;
64678;SDS011;51094;53.864;27.676;2023-04-01T21:48:44;6.47;;;6.38;;
64678;SDS011;51094;53.864;27.676;2023-04-01T22:06:06;6.55;;;6.35;;
64678;SDS011;51094;53.864;27.676;2023-04-01T22:08:43;6.05;;;5.95;;
64678;SDS011;51094;53.864;27.676;2023-04-01T22:11:38;6.47;;;6.28;;
64678;SDS011;51094;53.864;27.676;2023-04-01T22:16:58;6.97;;;6.80;;
64678;SDS011;51094;53.864;27.676;2023-04-01T22:19:42;6.20;;;6.10;;
64678;SDS011;51094;53.864;27.676;2023-04-01T22:22:15;5.93;;;5.82;;
64678;SDS011;51094;53.864;27.676;2023-04-01T22:29:59;6.13;;;5.93;;
64678;SDS011;51094;53.864;27.676;2023-04-01T22:32:39;6.22;;;6.13;;
64678;SDS011;51094;53.864;27.676;2023-04-01T22:41:00;5.53;;;5.43;;
64678;SDS011;51094;53.864;27.676;2023-04-01T22:43:42;5.50;;;5.40;;
64678;SDS011;51094;53.864;27.676;2023-04-01T22:48:54;5.93;;;5.82;;
64678;SDS011;51094;53.864;27.676;2023-04-01T23:00:25;5.78;;;5.68;;
64678;SDS011;51094;53.864;27.676;2023-04-01T23:05:49;6.60;;;6.40;;
64678;SDS011;51094;53.864;27.676;2023-04-01T23:11:48;6.72;;;6.53;;
64678;SDS011;51094;53.864;27.676;2023-04-01T23:19:24;6.95;;;6.68;;
64678;SDS011;51094;53.864;27.676;2023-04-01T23:22:00;6.55;;;6.25;;
64678;SDS011;51094;53.864;27.676;2023-04-01T23:24:49;7.00;;;6.65;;
64678;SDS011;51094;53.864;27.676;2023-04-01T23:27:23;7.07;;;6.78;;
64678;SDS011;51094;53.864;27.676;2023-04-01T23:30:00;6.22;;;6.03;;
64678;SDS011;51094;53.864;27.676;2023-04-01T23:32:27;6.40;;;6.20;;
64678;SDS011;51094;53.864;27.676;2023-04-01T23:34:55;6.30;;;6.10;;
64678;SDS011;51094;53.864;27.676;2023-04-01T23:37:24;6.38;;;6.13;;
64678;SDS011;51094;53.864;27.676;2023-04-01T23:39:58;6.00;;;5.80;;
64678;SDS011;51094;53.864;27.676;2023-04-01T23:42:28;5.55;;;5.32;;
64678;SDS011;51094;53.864;27.676;2023-04-01T23:45:31;5.85;;;5.65;;
64678;SDS011;51094;53.864;27.676;2023-04-01T23:47:51;6.28;;;5.97;;
64678;SDS011;51094;53.864;27.676;2023-04-01T23:50:20;5.20;;;5.00;;
64678;SDS011;51094;53.864;27.676;2023-04-01T23:53:02;5.30;;;5.00;;
64678;SDS011;51094;53.864;27.676;2023-04-01T23:55:42;5.18;;;4.80;;
